createdAt,value
2019-01-05T00:00:09.513Z,78.60
2019-01-05T00:02:39.781Z,78.60
2019-01-05T00:05:12.818Z,78.90
2019-01-05T00:07:59.798Z,79.10
2019-01-05T00:10:35.984Z,79.00
2019-01-05T00:13:09.189Z,79.20
2019-01-05T00:18:48.311Z,79.50
2019-01-05T00:21:33.929Z,79.80
2019-01-05T00:27:20.655Z,80.40
2019-01-05T00:30:03.079Z,80.20
2019-01-05T00:32:49.479Z,81.40
2019-01-05T00:35:38.315Z,80.70
2019-01-05T00:38:26.772Z,80.80
2019-01-05T00:41:02.779Z,81.20
2019-01-05T00:43:49.539Z,81.50
2019-01-05T00:46:29.365Z,81.70
2019-01-05T00:49:08.784Z,81.90
2019-01-05T00:51:43.056Z,82.10
2019-01-05T00:54:13.323Z,82.10
2019-01-05T00:56:58.573Z,82.30
2019-01-05T00:59:29.408Z,82.20
2019-01-05T01:02:12.226Z,82.50
2019-01-05T01:04:44.972Z,82.50
2019-01-05T01:07:18.728Z,82.80
2019-01-05T01:10:01.238Z,82.90
2019-01-05T01:12:32.233Z,82.90
2019-01-05T01:15:18.971Z,82.90
2019-01-05T01:18:05.520Z,83.30
2019-01-05T01:20:35.760Z,83.20
2019-01-05T01:23:22.009Z,83.40
2019-01-05T01:26:07.250Z,83.30
2019-01-05T01:28:55.785Z,83.10
2019-01-05T01:31:31.785Z,83.30
2019-01-05T01:34:02.367Z,83.50
2019-01-05T01:36:35.412Z,83.50
2019-01-05T01:39:16.078Z,83.50
2019-01-05T01:41:58.412Z,83.40
2019-01-05T01:44:44.831Z,83.30
2019-01-05T01:47:31.174Z,83.30
2019-01-05T01:50:13.339Z,83.00
2019-01-05T01:52:59.965Z,83.10
2019-01-05T01:55:46.504Z,83.10
2019-01-05T01:58:33.181Z,83.10
2019-01-05T02:01:03.563Z,82.90
2019-01-05T02:03:34.362Z,83.00
2019-01-05T02:06:20.963Z,83.10
2019-01-05T02:08:55.663Z,83.00
2019-01-05T02:11:31.593Z,83.00
2019-01-05T02:14:15.612Z,82.90
2019-01-05T02:17:10.430Z,83.10
2019-01-05T02:19:55.373Z,83.10
2019-01-05T02:23:06.366Z,83.30
2019-01-05T02:26:20.006Z,83.00
2019-01-05T02:28:59.037Z,83.00
2019-01-05T02:31:38.172Z,82.60
2019-01-05T02:34:47.370Z,82.80
2019-01-05T02:37:56.610Z,82.90
2019-01-05T02:40:50.833Z,83.30
2019-01-05T02:43:44.938Z,83.20
2019-01-05T02:46:36.584Z,83.30
2019-01-05T02:49:45.918Z,83.20
2019-01-05T02:52:47.575Z,83.30
2019-01-05T02:55:45.018Z,83.30
2019-01-05T02:58:52.867Z,83.70
2019-01-05T03:02:11.829Z,83.70
2019-01-05T03:05:05.713Z,83.80
2019-01-05T03:08:19.433Z,84.00
2019-01-05T03:11:27.270Z,84.00
2019-01-05T03:14:21.801Z,84.30
2019-01-05T03:17:35.956Z,84.20
2019-01-05T03:20:34.694Z,84.10
2019-01-05T03:23:13.644Z,84.60
2019-01-05T03:26:05.087Z,84.20
2019-01-05T03:29:17.087Z,84.30
2019-01-05T03:32:08.101Z,84.20
2019-01-05T03:35:02.382Z,84.30
2019-01-05T03:37:48.477Z,84.70
2019-01-05T03:40:42.867Z,84.60
2019-01-05T03:43:36.801Z,85.10
2019-01-05T03:46:41.977Z,84.60
2019-01-05T03:49:42.524Z,84.90
2019-01-05T03:52:24.586Z,84.90
2019-01-05T03:55:30.980Z,85.00
2019-01-05T03:58:20.692Z,85.00
2019-01-05T04:01:06.146Z,85.50
2019-01-05T04:04:02.992Z,85.60
2019-01-05T04:07:27.828Z,85.80
2019-01-05T04:10:35.647Z,85.80
2019-01-05T04:13:41.907Z,86.10
2019-01-05T04:16:44.633Z,86.30
2019-01-05T04:19:37.324Z,86.40
2019-01-05T04:22:22.338Z,86.40
2019-01-05T04:25:22.874Z,86.10
2019-01-05T04:28:01.812Z,86.60
2019-01-05T04:30:52.814Z,86.10
2019-01-05T04:34:02.521Z,86.10
2019-01-05T04:36:54.102Z,86.00
2019-01-05T04:39:30.167Z,86.20
2019-01-05T04:42:12.297Z,86.00
2019-01-05T04:45:31.320Z,86.20
2019-01-05T04:48:31.710Z,86.50
2019-01-05T04:51:39.614Z,86.70
2019-01-05T04:54:45.953Z,86.70
2019-01-05T04:57:35.979Z,86.80
2019-01-05T05:01:00.719Z,86.70
2019-01-05T05:03:43.221Z,86.20
2019-01-05T05:06:34.336Z,86.70
2019-01-05T05:09:40.878Z,87.00
2019-01-05T05:12:38.140Z,86.70
2019-01-05T05:15:46.053Z,86.70
2019-01-05T05:18:38.859Z,86.70
2019-01-05T05:21:34.421Z,86.80
2019-01-05T05:24:49.841Z,86.80
2019-01-05T05:27:38.123Z,86.60
2019-01-05T05:30:20.092Z,86.80
2019-01-05T05:33:10.188Z,86.90
2019-01-05T05:36:04.681Z,86.80
2019-01-05T05:38:57.936Z,86.80
2019-01-05T05:42:20.192Z,86.50
2019-01-05T05:45:38.850Z,86.20
2019-01-05T05:48:50.522Z,86.20
2019-01-05T05:51:57.193Z,86.30
2019-01-05T05:54:39.660Z,86.10
2019-01-05T05:57:29.374Z,85.80
2019-01-05T06:00:22.089Z,85.90
2019-01-05T06:03:19.003Z,85.50
2019-01-05T06:06:27.090Z,85.40
2019-01-05T06:09:35.999Z,85.30
2019-01-05T06:12:38.471Z,85.60
2019-01-05T06:15:35.748Z,85.30
2019-01-05T06:18:28.538Z,85.00
2019-01-05T06:21:36.247Z,84.90
2019-01-05T06:24:47.047Z,84.80
2019-01-05T06:27:36.954Z,84.40
2019-01-05T06:30:28.153Z,84.50
2019-01-05T06:37:12.851Z,84.10
2019-01-05T06:40:16.380Z,83.50
2019-01-05T06:43:16.139Z,83.60
2019-01-05T06:46:13.890Z,83.60
2019-01-05T06:49:11.565Z,83.10
2019-01-05T06:52:14.765Z,83.10
2019-01-05T06:55:12.126Z,82.80
2019-01-05T06:58:27.703Z,82.40
2019-01-05T07:01:33.361Z,82.50
2019-01-05T07:04:53.080Z,82.20
2019-01-05T07:07:50.682Z,82.50
2019-01-05T07:11:15.229Z,82.80
2019-01-05T07:13:59.857Z,82.40
2019-01-05T07:17:09.410Z,82.40
2019-01-05T07:20:22.766Z,82.60
2019-01-05T07:23:09.135Z,82.30
2019-01-05T07:26:09.728Z,82.10
2019-01-05T07:29:23.126Z,81.30
2019-01-05T07:32:13.933Z,80.80
2019-01-05T07:35:06.097Z,79.80
2019-01-05T07:38:09.989Z,79.40
2019-01-05T07:40:56.695Z,79.40
2019-01-05T07:43:58.561Z,78.40
2019-01-05T07:46:57.054Z,77.90
2019-01-05T07:50:04.095Z,77.50
2019-01-05T07:53:24.003Z,76.60
2019-01-05T07:56:15.239Z,76.30
2019-01-05T07:59:06.438Z,76.60
2019-01-05T08:02:11.128Z,77.00
2019-01-05T08:05:09.200Z,77.40
2019-01-05T08:08:15.058Z,77.80
2019-01-05T08:11:08.314Z,78.40
2019-01-05T08:13:50.552Z,77.70
2019-01-05T08:17:05.149Z,77.60
2019-01-05T08:20:10.423Z,76.70
2019-01-05T08:23:13.361Z,75.70
2019-01-05T08:26:08.235Z,73.60
2019-01-05T08:29:22.376Z,72.70
2019-01-05T08:32:27.153Z,71.70
2019-01-05T08:35:19.915Z,70.90
2019-01-05T08:38:27.805Z,69.80
2019-01-05T08:41:37.429Z,69.60
2019-01-05T08:44:47.153Z,69.10
2019-01-05T08:47:56.617Z,69.20
2019-01-05T08:50:47.828Z,68.50
2019-01-05T08:53:55.606Z,68.10
2019-01-05T08:57:03.702Z,67.40
2019-01-05T09:00:26.767Z,66.40
2019-01-05T09:03:31.697Z,65.80
2019-01-05T09:06:26.292Z,66.00
2019-01-05T09:09:08.577Z,66.90
2019-01-05T09:12:05.814Z,68.00
2019-01-05T09:14:50.851Z,68.10
2019-01-05T09:17:48.188Z,68.50
2019-01-05T09:20:47.010Z,68.80
2019-01-05T09:23:59.321Z,68.60
2019-01-05T09:27:05.944Z,68.40
2019-01-05T09:29:48.173Z,68.00
2019-01-05T09:32:45.578Z,66.60
2019-01-05T09:35:30.805Z,67.30
2019-01-05T09:38:44.778Z,68.00
2019-01-05T09:41:45.107Z,67.20
2019-01-05T09:44:49.407Z,67.10
2019-01-05T09:47:49.633Z,67.30
2019-01-05T09:50:42.619Z,67.80
2019-01-05T09:54:04.224Z,67.00
2019-01-05T09:56:53.639Z,70.40
2019-01-05T09:59:53.811Z,74.90
2019-01-05T10:02:52.917Z,71.80
2019-01-05T10:05:56.221Z,71.20
2019-01-05T10:09:05.673Z,71.40
2019-01-05T10:12:28.256Z,68.90
2019-01-05T10:15:30.980Z,65.50
2019-01-05T10:18:31.286Z,67.90
2019-01-05T10:21:42.346Z,65.00
2019-01-05T10:24:55.021Z,64.80
2019-01-05T10:27:38.262Z,62.60
2019-01-05T10:30:37.798Z,62.40
2019-01-05T10:33:27.782Z,64.30
2019-01-05T10:36:23.869Z,66.00
2019-01-05T10:39:22.708Z,66.70
2019-01-05T10:42:01.810Z,66.40
2019-01-05T10:45:08.999Z,66.10
2019-01-05T10:47:55.059Z,64.20
2019-01-05T10:50:44.558Z,64.40
2019-01-05T10:54:10.292Z,63.20
2019-01-05T10:56:55.819Z,63.20
2019-01-05T10:59:54.219Z,64.30
2019-01-05T11:02:42.839Z,64.00
2019-01-05T11:05:43.311Z,64.20
2019-01-05T11:08:49.561Z,65.00
2019-01-05T11:11:55.943Z,65.00
2019-01-05T11:14:48.479Z,65.40
2019-01-05T11:17:21.837Z,65.90
2019-01-05T11:20:21.151Z,65.80
2019-01-05T11:23:27.690Z,65.50
2019-01-05T11:26:34.200Z,65.00
2019-01-05T11:29:29.345Z,65.30
2019-01-05T11:32:25.220Z,65.70
2019-01-05T11:35:40.748Z,66.30
2019-01-05T11:38:45.603Z,67.00
2019-01-05T11:41:39.805Z,67.60
2019-01-05T11:44:44.827Z,67.40
2019-01-05T11:47:38.934Z,66.30
2019-01-05T11:50:30.090Z,65.50
2019-01-05T11:53:37.938Z,65.10
2019-01-05T11:56:26.296Z,65.60
2019-01-05T11:59:26.994Z,65.30
2019-01-05T12:02:45.258Z,65.40
2019-01-05T12:05:40.325Z,65.40
2019-01-05T12:08:31.634Z,66.70
2019-01-05T12:11:07.857Z,67.50
2019-01-05T12:13:59.191Z,66.90
2019-01-05T12:16:44.474Z,67.80
2019-01-05T12:19:38.945Z,68.00
2019-01-05T12:22:32.263Z,68.20
2019-01-05T12:25:40.766Z,68.10
2019-01-05T12:29:04.334Z,68.00
2019-01-05T12:32:27.381Z,67.60
2019-01-05T12:35:35.601Z,67.10
2019-01-05T12:53:54.742Z,69.20
2019-01-05T12:56:44.116Z,68.40
2019-01-05T12:59:44.306Z,68.30
2019-01-05T13:02:45.359Z,68.50
2019-01-05T13:05:40.608Z,68.50
2019-01-05T13:08:40.864Z,69.20
2019-01-05T13:11:58.144Z,69.50
2019-01-05T13:15:02.967Z,70.00
2019-01-05T13:17:57.335Z,70.80
2019-01-05T13:20:57.859Z,70.80
2019-01-05T13:23:39.939Z,71.20
2019-01-05T13:26:37.530Z,71.10
2019-01-05T13:29:37.015Z,70.60
2019-01-05T13:32:35.882Z,70.80
2019-01-05T13:35:20.420Z,71.00
2019-01-05T13:38:12.982Z,71.00
2019-01-05T13:41:22.879Z,71.40
2019-01-05T13:44:15.596Z,71.60
2019-01-05T13:47:00.840Z,71.70
2019-01-05T13:49:45.981Z,72.20
2019-01-05T13:53:26.046Z,72.60
2019-01-05T13:56:00.606Z,73.30
2019-01-05T13:58:43.620Z,74.20
2019-01-05T14:01:25.971Z,74.70
2019-01-05T14:04:00.508Z,75.30
2019-01-05T14:06:46.174Z,75.60
2019-01-05T14:09:22.404Z,76.10
2019-01-05T14:11:58.304Z,76.30
2019-01-05T14:14:33.851Z,76.30
2019-01-05T14:17:07.052Z,77.10
2019-01-05T14:19:37.607Z,77.00
2019-01-05T14:22:24.121Z,77.40
2019-01-05T14:25:04.094Z,77.60
2019-01-05T14:27:40.067Z,77.80
2019-01-05T14:30:22.671Z,77.50
2019-01-05T14:32:58.788Z,77.50
2019-01-05T14:35:29.266Z,77.40
2019-01-05T14:38:05.260Z,77.50
2019-01-05T14:40:50.697Z,77.70
2019-01-05T14:43:23.821Z,78.00
2019-01-05T14:46:09.322Z,77.90
2019-01-05T14:48:42.347Z,77.90
2019-01-05T14:51:15.712Z,78.40
2019-01-05T14:53:52.198Z,79.00
2019-01-05T14:56:32.000Z,79.00
2019-01-05T14:59:11.050Z,79.10
2019-01-05T15:01:44.114Z,79.70
2019-01-05T15:04:17.351Z,79.40
2019-01-05T15:07:04.066Z,79.30
2019-01-05T15:09:43.352Z,79.80
2019-01-05T15:12:32.020Z,80.60
2019-01-05T15:15:05.017Z,81.40
2019-01-05T15:17:51.801Z,82.10
2019-01-05T15:20:31.299Z,82.50
2019-01-05T15:23:02.047Z,83.00
2019-01-05T15:25:48.942Z,83.30
2019-01-05T15:28:31.240Z,83.30
2019-01-05T15:31:05.526Z,84.30
2019-01-05T15:33:39.418Z,83.70
2019-01-05T15:36:15.822Z,83.40
2019-01-05T15:39:02.661Z,83.50
2019-01-05T15:41:49.050Z,83.90
2019-01-05T15:44:35.772Z,84.20
2019-01-05T15:47:08.757Z,84.50
2019-01-05T15:49:45.073Z,84.50
2019-01-05T15:52:26.449Z,84.70
2019-01-05T15:54:58.336Z,84.90
2019-01-05T15:57:46.547Z,85.10
2019-01-05T16:00:32.986Z,85.20
2019-01-05T16:03:06.098Z,83.50
2019-01-05T16:05:53.099Z,82.80
2019-01-05T16:08:26.963Z,82.60
2019-01-05T16:10:59.030Z,82.00
2019-01-05T16:13:32.067Z,82.20
2019-01-05T16:16:20.564Z,80.90
2019-01-05T16:19:07.336Z,81.20
2019-01-05T16:21:37.832Z,81.80
2019-01-05T16:27:20.903Z,83.40
2019-01-05T16:30:00.237Z,84.10
2019-01-05T16:32:45.938Z,84.60
2019-01-05T16:35:25.424Z,84.20
2019-01-05T16:37:59.455Z,83.60
2019-01-05T16:40:34.146Z,83.40
2019-01-05T16:43:10.703Z,83.40
2019-01-05T16:45:40.990Z,83.70
2019-01-05T16:48:20.436Z,83.00
2019-01-05T16:51:07.044Z,83.10
2019-01-05T16:53:40.326Z,82.70
2019-01-05T16:56:13.572Z,82.60
2019-01-05T16:58:43.933Z,83.20
2019-01-05T17:01:30.581Z,83.30
2019-01-05T17:04:19.617Z,82.70
2019-01-05T17:07:03.125Z,82.50
2019-01-05T17:12:18.335Z,82.30
2019-01-05T17:14:58.887Z,82.40
2019-01-05T17:17:43.914Z,82.20
2019-01-05T17:20:16.479Z,82.00
2019-01-05T17:22:47.278Z,82.50
2019-01-05T17:25:29.520Z,82.20
2019-01-05T17:28:02.864Z,82.50
2019-01-05T17:30:50.029Z,83.20
2019-01-05T17:33:23.251Z,82.70
2019-01-05T17:36:02.664Z,83.70
2019-01-05T17:41:49.948Z,84.90
2019-01-05T17:44:38.434Z,85.00
2019-01-05T17:47:27.104Z,83.30
2019-01-05T17:50:06.510Z,83.00
2019-01-05T17:52:53.117Z,83.10
2019-01-05T17:55:26.381Z,83.20
2019-01-05T17:58:13.661Z,83.10
2019-01-05T18:00:47.733Z,83.10
2019-01-05T18:03:34.524Z,83.70
2019-01-05T18:06:07.382Z,83.80
2019-01-05T18:09:09.603Z,85.30
2019-01-05T18:11:52.029Z,84.20
2019-01-05T18:14:37.637Z,83.50
2019-01-05T18:17:10.947Z,83.10
2019-01-05T18:19:59.180Z,82.80
2019-01-05T18:22:30.093Z,82.80
2019-01-05T18:25:00.947Z,82.90
2019-01-05T18:27:38.006Z,82.70
2019-01-05T18:30:26.459Z,82.70
2019-01-05T18:33:14.313Z,82.60
2019-01-05T18:35:50.352Z,83.00
2019-01-05T18:38:36.862Z,84.20
2019-01-05T18:41:10.588Z,83.40
2019-01-05T18:43:57.436Z,83.90
2019-01-05T18:46:43.678Z,84.80
2019-01-05T18:49:16.724Z,84.60
2019-01-05T18:52:02.327Z,84.70
2019-01-05T18:54:45.271Z,85.80
2019-01-05T18:57:26.117Z,85.60
2019-01-05T19:00:05.473Z,85.70
2019-01-05T19:02:38.885Z,85.80
2019-01-05T19:05:25.423Z,87.10
2019-01-05T19:08:07.777Z,85.70
2019-01-05T19:10:54.281Z,85.30
2019-01-05T19:13:24.925Z,85.50
2019-01-05T19:15:58.011Z,85.90
2019-01-05T19:18:31.259Z,86.10
2019-01-05T19:21:20.861Z,86.10
2019-01-05T19:24:07.887Z,86.00
2019-01-05T19:26:38.196Z,85.80
2019-01-05T19:29:26.425Z,86.10
2019-01-05T19:32:02.969Z,85.90
2019-01-05T19:34:50.237Z,86.40
2019-01-05T19:37:20.580Z,87.10
2019-01-05T19:39:50.821Z,86.90
2019-01-05T19:42:24.110Z,87.50
2019-01-05T19:45:11.036Z,86.70
2019-01-05T19:47:58.973Z,86.50
2019-01-05T19:53:38.428Z,86.80
2019-01-05T19:56:08.700Z,87.10
2019-01-05T19:58:55.074Z,87.50
2019-01-05T20:01:31.311Z,87.60
2019-01-05T20:04:01.900Z,87.70
2019-01-05T20:06:39.165Z,88.00
2019-01-05T20:09:12.458Z,88.10
2019-01-05T20:11:51.874Z,88.90
2019-01-05T20:14:37.141Z,88.80
2019-01-05T20:17:10.125Z,89.10
2019-01-05T20:19:41.410Z,89.00
2019-01-05T20:22:27.939Z,88.40
2019-01-05T20:25:04.405Z,88.00
2019-01-05T20:27:46.898Z,88.00
2019-01-05T20:30:33.994Z,88.30
2019-01-05T20:33:22.328Z,88.30
2019-01-05T20:35:55.075Z,88.40
2019-01-05T20:38:37.680Z,88.40
2019-01-05T20:41:07.932Z,88.60
2019-01-05T20:43:50.480Z,88.50
2019-01-05T20:46:35.439Z,88.70
2019-01-05T20:49:06.503Z,88.90
2019-01-05T20:51:42.854Z,88.70
2019-01-05T20:54:28.196Z,88.90
2019-01-05T20:57:01.201Z,88.90
2019-01-05T20:59:31.515Z,89.10
2019-01-05T21:02:17.982Z,89.10
2019-01-05T21:04:58.790Z,89.30
2019-01-05T21:07:45.594Z,89.60
2019-01-05T21:10:15.914Z,89.40
2019-01-05T21:13:03.515Z,89.60
2019-01-05T21:15:47.056Z,89.50
2019-01-05T21:18:34.631Z,89.40
2019-01-05T21:21:07.757Z,89.10
2019-01-05T21:23:41.135Z,88.30
2019-01-05T21:26:12.758Z,87.70
2019-01-05T21:28:54.070Z,94.40
2019-01-05T21:31:43.794Z,96.40
2019-01-05T21:34:14.559Z,90.50
2019-01-05T21:37:03.248Z,84.10
2019-01-05T21:39:42.038Z,84.30
2019-01-05T21:42:28.690Z,85.40
2019-01-05T21:45:15.141Z,85.70
2019-01-05T21:47:48.199Z,86.00
2019-01-05T21:50:21.156Z,86.80
2019-01-05T21:53:07.881Z,86.70
2019-01-05T21:55:53.185Z,86.60
2019-01-05T21:58:26.245Z,87.70
2019-01-05T22:01:05.544Z,87.10
2019-01-05T22:03:39.542Z,87.20
2019-01-05T22:06:26.260Z,87.20
2019-01-05T22:09:02.571Z,87.80
2019-01-05T22:11:39.768Z,87.70
2019-01-05T22:14:25.675Z,88.00
2019-01-05T22:16:58.620Z,87.80
2019-01-05T22:19:31.899Z,91.10
2019-01-05T22:22:02.179Z,87.70
2019-01-05T22:24:50.568Z,86.60
2019-01-05T22:27:22.292Z,86.40
2019-01-05T22:29:52.600Z,86.20
2019-01-05T22:32:25.700Z,86.20
2019-01-05T22:34:55.968Z,85.80
2019-01-05T22:37:45.250Z,85.20
2019-01-05T22:40:41.076Z,85.00
2019-01-05T22:43:27.690Z,84.70
2019-01-05T22:46:13.246Z,84.80
2019-01-05T22:48:57.110Z,85.00
2019-01-05T22:51:42.357Z,85.40
2019-01-05T22:54:15.753Z,84.60
2019-01-05T22:56:52.206Z,84.30
2019-01-05T22:59:38.905Z,85.20
2019-01-05T23:02:15.030Z,85.50
2019-01-05T23:04:54.337Z,85.50
2019-01-05T23:07:40.822Z,85.30
2019-01-05T23:10:26.115Z,85.70
2019-01-05T23:12:56.389Z,85.30
2019-01-05T23:15:42.510Z,85.50
2019-01-05T23:18:12.768Z,85.90
2019-01-05T23:20:45.703Z,85.70
2019-01-05T23:23:32.229Z,85.80
2019-01-05T23:26:20.568Z,85.70
2019-01-05T23:29:00.072Z,86.30
2019-01-05T23:31:30.346Z,86.10
2019-01-05T23:34:09.769Z,85.70
2019-01-05T23:36:40.034Z,86.40
2019-01-05T23:39:26.328Z,86.00
2019-01-05T23:41:56.581Z,86.30
2019-01-05T23:44:43.000Z,85.80
2019-01-05T23:47:16.037Z,86.00
2019-01-05T23:50:02.644Z,85.70
2019-01-05T23:52:32.925Z,86.00
2019-01-05T23:55:08.994Z,85.80
2019-01-05T23:57:39.343Z,85.90
